Time;durP1;ratioP1;P1;durP2;ratioP2;P2;SDS_P1;SDS_P2;PMS_P1;PMS_P2;Temp;Humidity;BMP_temperature;BMP_pressure;BME280_temperature;BME280_humidity;BME280_pressure;Samples;Min_cycle;Max_cycle;Signal;HPM_P1;HPM_P2
2021/03/03 00:00:48;;;;;;;15.07;7.07;;;;;;;11.43;44.30;101120.44;5034182;28;20049;-86
2021/03/03 00:03:15;;;;;;;11.00;6.63;;;;;;;11.44;44.54;101124.84;5016737;28;20416;-86
2021/03/03 00:05:41;;;;;;;12.85;6.57;;;;;;;11.43;44.20;101123.09;5033080;28;20500;-86
2021/03/03 00:08:07;;;;;;;11.02;5.97;;;;;;;11.41;44.23;101122.31;5016273;28;20060;-86
2021/03/03 00:10:33;;;;;;;9.57;6.07;;;;;;;11.41;44.23;101119.66;5034050;28;20053;-87
2021/03/03 00:12:59;;;;;;;10.73;6.30;;;;;;;11.40;44.13;101121.44;5016492;28;20104;-86
2021/03/03 00:15:25;;;;;;;10.40;6.53;;;;;;;11.39;44.22;101121.50;5015335;28;20049;-86
2021/03/03 00:17:52;;;;;;;9.85;6.53;;;;;;;11.37;44.20;101120.69;5033666;28;20057;-86
2021/03/03 00:20:18;;;;;;;11.88;6.78;;;;;;;11.34;44.25;101119.88;5033562;28;20103;-86
2021/03/03 00:22:44;;;;;;;11.05;6.60;;;;;;;11.31;44.29;101117.38;5033901;28;20393;-86
2021/03/03 00:25:11;;;;;;;12.77;5.80;;;;;;;11.29;44.39;101118.38;5008096;28;20053;-86
2021/03/03 00:27:37;;;;;;;12.50;6.57;;;;;;;11.27;44.40;101118.44;5014041;28;20050;-86
2021/03/03 00:30:18;;;;;;;10.57;6.38;;;;;;;11.26;44.29;101121.13;4998300;28;20053;-86
2021/03/03 00:32:44;;;;;;;14.93;6.63;;;;;;;11.24;44.44;101121.16;5013687;28;20512;-86
2021/03/03 00:35:11;;;;;;;14.88;6.88;;;;;;;11.21;44.48;101121.28;5001750;28;20447;-86
2021/03/03 00:37:37;;;;;;;12.38;7.22;;;;;;;11.21;44.52;101118.63;5016142;28;20060;-86
2021/03/03 00:40:05;;;;;;;12.10;6.55;;;;;;;11.19;44.58;101123.13;5015785;28;20565;-86
2021/03/03 00:42:31;;;;;;;12.57;7.32;;;;;;;11.20;44.75;101122.19;5032763;28;20415;-86
2021/03/03 00:44:57;;;;;;;14.10;7.10;;;;;;;11.19;44.83;101117.84;5021215;28;20053;-86
2021/03/03 00:47:24;;;;;;;11.68;6.95;;;;;;;11.21;44.74;101126.53;5013794;28;20061;-86
2021/03/03 00:49:50;;;;;;;17.05;6.97;;;;;;;11.20;44.70;101119.56;5013499;28;20061;-86
2021/03/03 00:52:16;;;;;;;17.08;7.57;;;;;;;11.20;44.73;101122.19;4998444;28;20057;-86
2021/03/03 00:54:43;;;;;;;16.08;8.35;;;;;;;11.19;44.79;101120.50;5032541;28;20124;-86
2021/03/03 00:57:10;;;;;;;15.85;7.45;;;;;;;11.18;44.79;101116.13;5018524;28;20411;-86
2021/03/03 00:59:36;;;;;;;12.77;7.03;;;;;;;11.17;44.66;101114.41;5000218;28;20058;-86
2021/03/03 01:02:02;;;;;;;13.30;7.28;;;;;;;11.17;44.82;101117.03;5033108;28;20057;-86
2021/03/03 01:04:28;;;;;;;13.57;7.40;;;;;;;11.14;44.81;101111.91;5015769;28;20053;-86
2021/03/03 01:06:54;;;;;;;11.75;7.13;;;;;;;11.13;44.84;101108.41;5015872;28;20049;-86
2021/03/03 01:09:21;;;;;;;12.45;7.53;;;;;;;11.13;44.90;101112.78;5033229;28;20056;-86
2021/03/03 01:11:47;;;;;;;12.68;7.30;;;;;;;11.12;44.99;101108.44;5015683;28;20045;-86
2021/03/03 01:14:13;;;;;;;16.77;7.50;;;;;;;11.10;44.93;101105.03;5033118;28;20052;-86
2021/03/03 01:16:39;;;;;;;12.63;7.85;;;;;;;11.10;44.97;101102.38;5015621;28;20049;-86
2021/03/03 01:19:06;;;;;;;13.57;6.90;;;;;;;11.08;45.01;101105.94;5015672;28;20045;-86
2021/03/03 01:21:32;;;;;;;12.23;7.18;;;;;;;11.08;45.11;101102.44;5015117;28;20052;-86
2021/03/03 01:23:58;;;;;;;13.18;7.35;;;;;;;11.07;45.07;101093.66;4996026;28;20050;-86
2021/03/03 01:26:24;;;;;;;13.40;7.45;;;;;;;11.04;45.13;101093.81;5013075;28;20485;-86
2021/03/03 01:28:50;;;;;;;10.68;6.95;;;;;;;11.04;44.99;101096.44;4995963;28;20073;-86
2021/03/03 01:31:16;;;;;;;14.73;7.65;;;;;;;11.02;45.09;101095.63;5029304;28;20496;-86
2021/03/03 01:33:42;;;;;;;15.13;7.22;;;;;;;11.01;45.14;101096.53;5033049;28;20049;-86
2021/03/03 01:36:08;;;;;;;17.63;8.13;;;;;;;10.99;45.31;101097.53;5032864;28;20416;-86
2021/03/03 01:38:34;;;;;;;13.80;7.78;;;;;;;10.97;45.19;101094.06;5015476;28;20455;-87
2021/03/03 01:41:01;;;;;;;17.63;7.40;;;;;;;10.94;45.27;101089.78;5002864;28;20061;-87
2021/03/03 01:43:33;;;;;;;12.27;7.50;;;;;;;10.91;45.51;101092.50;5012818;28;20050;-87
2021/03/03 01:45:59;;;;;;;16.20;8.02;;;;;;;10.90;45.32;101090.81;4995721;28;20046;-86
2021/03/03 01:48:26;;;;;;;10.82;7.07;;;;;;;10.88;45.41;101084.75;4995558;28;20133;-86
2021/03/03 01:50:53;;;;;;;13.93;7.80;;;;;;;10.85;45.51;101090.13;5024834;28;20052;-86
2021/03/03 01:53:19;;;;;;;14.68;7.82;;;;;;;10.82;45.54;101091.97;5015416;28;20100;-87
2021/03/03 01:55:45;;;;;;;19.05;8.30;;;;;;;10.81;45.46;101082.31;5027422;28;20049;-86
2021/03/03 01:58:12;;;;;;;18.02;7.68;;;;;;;10.79;45.74;101084.16;5011481;28;20077;-86
2021/03/03 02:00:38;;;;;;;13.60;8.05;;;;;;;10.77;45.84;101080.72;4999350;28;20136;-86
2021/03/03 02:03:05;;;;;;;14.95;7.90;;;;;;;10.75;45.96;101081.69;5016868;28;20085;-86
2021/03/03 02:05:31;;;;;;;13.18;7.53;;;;;;;10.72;45.91;101073.91;5016059;28;20046;-86
2021/03/03 02:08:16;;;;;;;15.45;7.57;;;;;;;10.66;46.47;101072.34;5001414;28;20060;-87
2021/03/03 02:11:11;;;;;;;12.10;7.00;;;;;;;10.66;46.30;101077.63;5016223;28;20060;-86
2021/03/03 02:13:42;;;;;;;14.73;7.60;;;;;;;10.61;46.58;101069.03;5014032;28;20050;-86
2021/03/03 02:16:10;;;;;;;12.52;7.30;;;;;;;10.59;46.11;101070.84;4999328;28;20057;-86
2021/03/03 02:18:39;;;;;;;16.65;7.97;;;;;;;10.54;46.45;101071.88;4999691;28;20415;-86
2021/03/03 02:21:11;;;;;;;14.77;8.20;;;;;;;10.52;47.00;101068.44;5016232;28;20057;-86
2021/03/03 02:23:59;;;;;;;12.70;7.15;;;;;;;10.49;47.05;101065.91;4998587;28;20050;-87
2021/03/03 02:26:33;;;;;;;13.80;7.20;;;;;;;10.52;46.55;101062.31;5000945;28;20406;-87
2021/03/03 02:29:13;;;;;;;14.02;7.72;;;;;;;10.48;46.97;101063.34;4998839;28;20056;-88
2021/03/03 02:31:42;;;;;;;16.25;7.38;;;;;;;10.47;46.81;101057.19;5016273;28;20519;-88
2021/03/03 02:34:11;;;;;;;12.43;7.07;;;;;;;10.47;46.44;101051.09;5014424;28;20057;-88
2021/03/03 02:36:38;;;;;;;13.52;7.40;;;;;;;10.45;46.66;101051.16;5019440;28;20045;-88
2021/03/03 02:39:05;;;;;;;19.77;7.72;;;;;;;10.45;46.31;101045.88;5035808;28;20053;-88
2021/03/03 02:41:33;;;;;;;13.50;7.93;;;;;;;10.43;46.06;101048.53;5035686;28;20056;-88
2021/03/03 02:44:04;;;;;;;18.63;8.35;;;;;;;10.42;46.62;101052.09;5018001;28;20494;-87
2021/03/03 02:46:32;;;;;;;15.73;8.25;;;;;;;10.40;46.83;101047.78;5035084;28;20054;-88
2021/03/03 02:49:00;;;;;;;13.13;7.60;;;;;;;10.39;46.64;101041.66;5017988;28;20494;-88
2021/03/03 02:51:26;;;;;;;18.40;8.13;;;;;;;10.37;46.55;101045.25;5018692;28;20054;-87
2021/03/03 02:53:52;;;;;;;16.05;8.00;;;;;;;10.35;46.78;101045.31;5017769;28;20046;-88
2021/03/03 05:30:27;;;;;;;21.40;10.48;;;;;;;9.31;50.19;100959.38;5015002;28;20064;-86
2021/03/03 07:43:48;;;;;;;19.23;9.57;;;;;;;9.84;50.40;100978.69;5014358;28;20113;-86
2021/03/03 07:46:16;;;;;;;20.20;9.55;;;;;;;9.90;49.51;100981.94;5016484;28;20052;-83
2021/03/03 07:48:49;;;;;;;19.75;9.95;;;;;;;9.93;50.32;100978.34;4997181;28;20053;-83
2021/03/03 07:51:16;;;;;;;22.88;9.95;;;;;;;9.99;49.79;100978.13;4997037;28;20049;-83
2021/03/03 07:53:43;;;;;;;20.02;10.48;;;;;;;10.04;49.35;100981.47;5014232;28;20497;-84
2021/03/03 07:56:11;;;;;;;23.20;10.15;;;;;;;10.08;49.68;100973.47;5026960;28;20050;-84
2021/03/03 07:58:38;;;;;;;22.20;10.23;;;;;;;10.12;49.30;100981.19;5033689;28;20050;-83
2021/03/03 08:01:23;;;;;;;21.92;9.93;;;;;;;10.16;49.56;100979.31;5019754;28;20060;-83
2021/03/03 08:03:51;;;;;;;19.48;10.18;;;;;;;10.21;49.55;100989.69;5033638;28;20132;-84
2021/03/03 08:06:21;;;;;;;22.95;10.07;;;;;;;10.23;49.68;100975.56;5002448;28;20053;-83
2021/03/03 08:09:05;;;;;;;22.58;11.20;;;;;;;10.25;49.89;100978.97;5014573;28;20133;-83
2021/03/03 08:11:37;;;;;;;22.50;10.98;;;;;;;10.33;49.84;100980.47;5014592;28;20060;-83
2021/03/03 08:14:36;;;;;;;22.98;11.02;;;;;;;10.35;49.94;100979.50;5013503;28;20546;-84
2021/03/03 08:17:05;;;;;;;21.52;10.57;;;;;;;10.45;49.22;100977.44;5014771;28;20095;-83
2021/03/03 08:19:47;;;;;;;24.10;11.23;;;;;;;10.46;49.59;100976.53;5033034;28;20099;-84
2021/03/03 08:22:13;;;;;;;21.40;11.63;;;;;;;10.54;49.24;100979.72;5034158;28;20053;-84
2021/03/03 08:24:39;;;;;;;22.95;11.85;;;;;;;10.60;49.08;100977.78;5032732;28;20053;-84
2021/03/03 08:27:30;;;;;;;21.20;11.23;;;;;;;10.59;49.18;100974.31;5014389;28;20042;-83
2021/03/03 08:30:15;;;;;;;23.88;11.18;;;;;;;10.63;49.15;100964.50;4996440;28;20054;-83
2021/03/03 08:32:42;;;;;;;21.88;10.40;;;;;;;10.71;48.95;100974.75;5029121;28;20060;-83
2021/03/03 08:35:10;;;;;;;22.20;10.85;;;;;;;10.73;48.88;100971.13;5031918;28;20578;-83
2021/03/03 08:37:38;;;;;;;18.55;10.40;;;;;;;10.78;48.97;100976.22;5033353;28;20495;-83
2021/03/03 08:40:26;;;;;;;20.88;10.43;;;;;;;10.78;49.28;100969.19;5033845;28;20132;-83
2021/03/03 08:42:52;;;;;;;15.55;9.63;;;;;;;10.87;48.78;100969.75;5033493;28;20061;-84
2021/03/03 08:45:20;;;;;;;23.10;10.88;;;;;;;10.90;48.78;100965.22;5029981;28;20056;-83
2021/03/03 08:47:48;;;;;;;20.27;10.70;;;;;;;10.93;48.93;100958.97;5033416;28;20461;-83
2021/03/03 08:50:38;;;;;;;19.20;11.48;;;;;;;10.94;49.17;100956.28;5012878;28;20496;-83
2021/03/03 08:53:28;;;;;;;22.00;11.07;;;;;;;10.99;48.65;100964.00;5033460;28;20492;-83
2021/03/03 08:55:56;;;;;;;21.95;11.13;;;;;;;11.07;48.89;100967.19;5063945;22;20411;-85
2021/03/03 08:58:37;;;;;;;21.70;11.40;;;;;;;11.07;48.76;100961.06;5015934;28;20049;-85
2021/03/03 09:01:04;;;;;;;21.75;11.77;;;;;;;11.16;48.41;100959.84;5015826;28;20053;-85
2021/03/03 09:03:31;;;;;;;20.30;11.18;;;;;;;11.21;48.62;100957.88;5031815;28;20049;-85
2021/03/03 09:05:57;;;;;;;25.08;12.27;;;;;;;11.26;48.73;100955.94;5017015;28;20389;-85
2021/03/03 09:08:24;;;;;;;22.02;11.20;;;;;;;11.29;48.90;100950.50;5017797;28;20057;-85
2021/03/03 09:10:52;;;;;;;25.40;12.20;;;;;;;11.34;48.61;100943.25;5000373;28;20053;-86
2021/03/03 09:13:21;;;;;;;26.02;12.23;;;;;;;11.37;48.74;100950.22;5000341;28;20427;-86
2021/03/03 09:16:03;;;;;;;21.33;12.25;;;;;;;11.40;48.85;100941.31;4997616;28;20050;-85
2021/03/03 09:18:30;;;;;;;20.05;11.07;;;;;;;11.47;48.39;100935.72;5000139;28;20050;-85
2021/03/03 09:21:07;;;;;;;26.17;12.77;;;;;;;11.49;48.65;100940.06;5017540;28;20137;-85
2021/03/03 09:23:35;;;;;;;23.40;11.85;;;;;;;11.55;48.45;100938.03;4999513;28;20053;-86
2021/03/03 09:26:01;;;;;;;23.35;11.80;;;;;;;11.59;48.36;100934.34;4998511;28;20056;-85
2021/03/03 09:28:41;;;;;;;23.55;12.40;;;;;;;11.60;48.52;100932.56;4999151;28;20046;-85
2021/03/03 09:31:08;;;;;;;23.92;12.52;;;;;;;11.69;48.56;100929.53;5017343;28;20054;-85
2021/03/03 09:33:34;;;;;;;27.70;12.73;;;;;;;11.75;48.20;100930.19;5016982;28;20050;-86
2021/03/03 09:36:02;;;;;;;26.77;12.45;;;;;;;11.84;48.27;100937.69;5016548;28;20444;-85
2021/03/03 09:38:30;;;;;;;87.53;14.27;;;;;;;11.93;48.57;100933.81;5000053;28;20416;-85
2021/03/03 09:41:09;;;;;;;30.20;12.95;;;;;;;11.99;47.99;100934.41;4999415;28;20056;-85
2021/03/03 09:43:35;;;;;;;25.83;13.07;;;;;;;12.15;48.18;100932.91;4999606;28;20053;-87
2021/03/03 09:46:01;;;;;;;27.20;13.18;;;;;;;12.25;47.95;100940.34;4998821;28;20385;-86
2021/03/03 09:48:28;;;;;;;24.42;13.40;;;;;;;12.36;47.93;100933.69;4999835;28;20054;-86
2021/03/03 09:50:58;;;;;;;28.33;13.98;;;;;;;12.48;47.61;100938.44;4999982;28;20050;-86
2021/03/03 09:53:24;;;;;;;26.90;13.40;;;;;;;12.57;47.17;100944.22;5016474;28;20491;-85
2021/03/03 09:55:50;;;;;;;31.05;14.05;;;;;;;12.67;47.31;100934.09;5016095;28;20049;-85
2021/03/03 09:58:17;;;;;;;29.52;13.75;;;;;;;12.73;47.23;100928.50;5016809;28;20419;-86
2021/03/03 10:00:43;;;;;;;27.67;12.95;;;;;;;12.80;46.86;100935.22;4999228;28;20058;-86
2021/03/03 10:03:16;;;;;;;24.67;13.00;;;;;;;12.86;46.82;100939.34;4998985;28;20048;-86
2021/03/03 10:05:43;;;;;;;32.25;13.98;;;;;;;12.95;47.15;100927.47;5016045;28;20054;-86
2021/03/03 10:08:13;;;;;;;23.70;13.65;;;;;;;13.03;47.03;100933.25;5016346;28;20404;-86
2021/03/03 10:10:46;;;;;;;25.50;13.02;;;;;;;13.09;47.06;100930.28;5016210;28;20096;-86
2021/03/03 10:13:22;;;;;;;24.63;13.73;;;;;;;13.21;47.30;100930.63;4998719;28;20050;-87
2021/03/03 10:15:48;;;;;;;23.85;12.77;;;;;;;13.36;47.12;100927.25;4997256;28;20049;-87
2021/03/03 10:18:14;;;;;;;23.92;14.55;;;;;;;13.46;46.57;100930.25;5004281;28;20049;-86
2021/03/03 10:20:44;;;;;;;25.58;13.02;;;;;;;13.54;46.30;100935.22;5035718;28;20053;-86
2021/03/03 10:23:14;;;;;;;23.45;13.45;;;;;;;13.61;46.22;100922.53;5018408;28;20129;-87
2021/03/03 10:25:48;;;;;;;24.55;13.65;;;;;;;13.67;46.30;100928.38;5006628;28;20049;-87
2021/03/03 10:28:16;;;;;;;28.77;13.35;;;;;;;13.74;46.54;100930.69;4997620;28;20132;-87
2021/03/03 10:30:45;;;;;;;25.80;14.38;;;;;;;13.79;46.67;100929.50;5015895;28;20046;-87
2021/03/03 10:33:24;;;;;;;25.17;13.90;;;;;;;13.87;46.32;100931.75;4998186;28;20510;-86
2021/03/03 10:35:51;;;;;;;25.80;13.52;;;;;;;13.92;46.32;100926.22;4997969;28;20042;-84
2021/03/03 10:38:20;;;;;;;25.27;12.85;;;;;;;13.98;46.40;100930.34;4998114;28;20054;-86
2021/03/03 10:40:48;;;;;;;26.85;14.23;;;;;;;14.04;46.10;100922.06;4998298;28;20065;-87
2021/03/03 10:43:16;;;;;;;26.27;13.27;;;;;;;14.12;46.43;100929.59;4998137;28;20049;-86
2021/03/03 10:45:44;;;;;;;23.05;14.35;;;;;;;14.22;46.53;100935.28;5014905;28;20049;-87
2021/03/03 10:48:31;;;;;;;29.33;15.18;;;;;;;14.29;46.26;100932.22;4998471;28;20057;-87
2021/03/03 10:51:02;;;;;;;26.80;13.88;;;;;;;14.44;46.47;100935.81;4997912;28;20142;-87
2021/03/03 10:53:50;;;;;;;28.65;15.10;;;;;;;14.51;45.72;100924.91;4998645;28;20113;-87
2021/03/03 10:56:29;;;;;;;26.40;13.90;;;;;;;14.63;46.12;100929.53;4997661;28;20058;-87
2021/03/03 10:58:57;;;;;;;32.63;15.77;;;;;;;14.73;46.11;100928.06;5015118;28;20153;-87
2021/03/03 11:01:39;;;;;;;25.98;14.65;;;;;;;14.85;46.14;100928.38;4997662;28;20054;-87
2021/03/03 11:04:06;;;;;;;27.50;14.90;;;;;;;14.99;46.21;100924.91;4997403;28;20061;-86
2021/03/03 11:06:33;;;;;;;25.73;14.73;;;;;;;15.14;46.23;100917.88;5014689;28;20504;-86
2021/03/03 11:09:01;;;;;;;30.65;16.30;;;;;;;15.30;46.19;100917.84;5014112;28;20093;-86
2021/03/03 11:11:27;;;;;;;25.38;15.00;;;;;;;15.45;45.75;100912.59;4997417;28;20106;-86
2021/03/03 11:13:54;;;;;;;30.90;16.23;;;;;;;15.58;45.74;100905.59;5014311;28;20057;-86
2021/03/03 11:16:21;;;;;;;31.88;16.45;;;;;;;15.69;45.26;100910.25;5014539;28;20049;-86
2021/03/03 11:18:47;;;;;;;28.80;16.50;;;;;;;15.82;45.18;100906.88;4997666;28;20061;-86
2021/03/03 11:21:13;;;;;;;31.02;18.17;;;;;;;15.92;44.82;100901.88;4997133;28;20049;-86
2021/03/03 11:23:44;;;;;;;34.67;18.42;;;;;;;16.01;44.41;100899.50;5014131;28;20137;-86
2021/03/03 11:26:10;;;;;;;39.00;18.42;;;;;;;16.08;44.45;100897.34;4997070;28;20050;-87
2021/03/03 11:28:36;;;;;;;37.92;19.73;;;;;;;16.15;44.68;100889.84;4996554;28;20060;-84
2021/03/03 11:31:04;;;;;;;34.72;19.60;;;;;;;16.22;44.55;100891.16;4996725;28;20050;-86
2021/03/03 11:33:31;;;;;;;31.70;18.60;;;;;;;16.31;44.61;100895.06;4997230;28;20049;-85
2021/03/03 11:35:57;;;;;;;35.15;18.60;;;;;;;16.41;44.69;100882.88;4994426;28;20127;-87
2021/03/03 11:38:28;;;;;;;36.75;19.80;;;;;;;16.56;44.39;100884.66;5014726;28;20108;-84
2021/03/03 11:40:54;;;;;;;31.27;18.75;;;;;;;16.72;44.66;100888.03;4996848;28;20057;-84
2021/03/03 11:43:20;;;;;;;28.77;18.58;;;;;;;16.94;44.88;100881.31;5014886;28;20057;-87
2021/03/03 11:45:46;;;;;;;32.05;19.88;;;;;;;17.25;45.08;100879.28;4996211;28;20049;-86
2021/03/03 11:48:13;;;;;;;38.47;21.02;;;;;;;17.61;45.00;100884.03;4996833;28;20056;-87
2021/03/03 11:50:39;;;;;;;38.92;21.67;;;;;;;18.02;44.88;100876.75;4996991;28;20056;-86
2021/03/03 11:53:05;;;;;;;34.63;21.10;;;;;;;18.46;44.43;100871.88;5014624;28;20057;-87
2021/03/03 11:55:31;;;;;;;38.65;21.20;;;;;;;18.85;43.13;100861.94;5013489;28;20056;-87
2021/03/03 11:57:57;;;;;;;32.08;21.13;;;;;;;19.14;41.85;100856.25;5013646;28;20053;-87
2021/03/03 12:00:25;;;;;;;38.63;23.58;;;;;;;19.30;41.19;100856.88;5014255;28;20061;-87
2021/03/03 12:02:52;;;;;;;37.28;22.40;;;;;;;19.33;40.27;100852.16;5013749;28;20046;-87
2021/03/03 12:05:19;;;;;;;36.45;21.85;;;;;;;19.29;40.45;100853.38;4996463;28;20516;-84
2021/03/03 12:07:45;;;;;;;37.80;22.77;;;;;;;19.19;40.27;100858.56;4996865;28;20041;-84
2021/03/03 12:10:12;;;;;;;36.92;21.45;;;;;;;19.05;40.33;100851.59;5012576;28;20046;-87
2021/03/03 12:12:39;;;;;;;36.13;21.90;;;;;;;18.91;40.14;100846.44;4996476;28;20103;-86
2021/03/03 12:15:07;;;;;;;35.58;22.77;;;;;;;18.74;40.21;100843.22;5013514;28;20058;-86
2021/03/03 12:17:33;;;;;;;40.95;22.90;;;;;;;18.65;40.75;100849.22;4996445;28;20046;-86
2021/03/03 12:19:59;;;;;;;41.90;22.75;;;;;;;18.55;41.12;100839.25;5013327;28;20136;-86
2021/03/03 12:22:26;;;;;;;41.53;24.08;;;;;;;18.51;41.25;100845.75;5013943;28;20132;-86
2021/03/03 12:24:52;;;;;;;40.33;22.42;;;;;;;18.53;41.57;100835.81;4995863;28;20080;-86
2021/03/03 12:27:18;;;;;;;33.88;21.98;;;;;;;18.59;41.58;100842.53;4996176;28;20046;-86
2021/03/03 12:29:44;;;;;;;35.95;22.63;;;;;;;18.65;41.26;100836.72;5012929;28;20049;-86
2021/03/03 12:32:11;;;;;;;32.67;19.52;;;;;;;18.69;41.40;100832.88;5013396;28;20042;-87
2021/03/03 12:34:37;;;;;;;32.03;20.77;;;;;;;18.74;41.61;100828.06;5013139;28;20056;-86
2021/03/03 12:37:03;;;;;;;36.80;21.45;;;;;;;18.81;41.43;100825.78;4996093;28;20409;-86
2021/03/03 12:39:29;;;;;;;34.67;21.45;;;;;;;18.96;41.85;100836.25;5012960;28;20499;-86
2021/03/03 12:42:00;;;;;;;34.88;21.15;;;;;;;19.16;41.81;100823.25;4996625;28;20587;-87
2021/03/03 12:44:26;;;;;;;33.90;21.55;;;;;;;19.38;41.81;100822.44;5013075;28;20066;-86
2021/03/03 12:46:53;;;;;;;38.42;22.02;;;;;;;19.64;41.35;100816.91;5013197;28;20050;-86
2021/03/03 12:49:19;;;;;;;32.95;20.92;;;;;;;19.90;41.08;100813.97;4995779;28;20077;-86
2021/03/03 12:51:45;;;;;;;36.42;21.23;;;;;;;20.17;41.21;100808.28;5013583;28;20412;-86
2021/03/03 12:54:11;;;;;;;41.05;24.00;;;;;;;20.45;40.75;100810.50;4995292;28;20455;-86
2021/03/03 12:56:37;;;;;;;38.60;23.35;;;;;;;20.71;40.49;100807.50;4995752;28;20504;-87
2021/03/03 12:59:04;;;;;;;46.97;28.48;;;;;;;20.96;39.98;100805.44;4995558;28;20053;-86
2021/03/03 13:01:30;;;;;;;39.15;25.52;;;;;;;21.21;40.17;100798.03;4995332;28;20046;-86
2021/03/03 13:03:56;;;;;;;49.60;29.95;;;;;;;21.46;39.96;100802.09;5012878;28;20116;-86
2021/03/03 13:06:23;;;;;;;42.05;31.20;;;;;;;21.76;39.40;100804.09;5013322;28;20046;-85
2021/03/03 13:08:49;;;;;;;43.60;29.77;;;;;;;22.02;39.04;100791.06;4995711;28;20045;-84
2021/03/03 13:11:15;;;;;;;46.03;31.60;;;;;;;22.29;38.74;100788.72;4995519;28;20056;-84
2021/03/03 13:13:41;;;;;;;44.40;29.75;;;;;;;22.54;38.21;100789.16;4995076;28;20053;-85
2021/03/03 13:16:07;;;;;;;44.45;31.77;;;;;;;22.76;37.75;100783.53;5013387;28;20412;-84
2021/03/03 13:18:34;;;;;;;43.70;29.35;;;;;;;22.98;37.15;100775.28;5013018;28;20093;-84
2021/03/03 13:21:00;;;;;;;39.08;29.08;;;;;;;23.16;36.82;100773.56;4995789;28;20085;-84
2021/03/03 13:23:26;;;;;;;43.97;29.95;;;;;;;23.33;36.63;100772.97;4995654;28;20058;-84
2021/03/03 13:25:53;;;;;;;42.55;30.27;;;;;;;23.47;36.01;100764.44;5012252;28;20057;-85
2021/03/03 13:28:19;;;;;;;44.17;31.52;;;;;;;23.58;36.01;100759.91;4995744;28;20049;-84
2021/03/03 13:30:45;;;;;;;39.92;30.63;;;;;;;23.60;35.65;100765.94;5012932;28;20046;-84
2021/03/03 13:33:12;;;;;;;43.75;31.55;;;;;;;23.54;35.43;100760.19;4991282;28;20150;-84
2021/03/03 13:35:38;;;;;;;41.70;30.95;;;;;;;23.45;35.44;100758.38;5007818;28;20137;-84
2021/03/03 13:38:05;;;;;;;43.80;31.13;;;;;;;23.33;35.11;100762.22;4995576;28;20054;-84
2021/03/03 13:40:31;;;;;;;47.22;32.05;;;;;;;23.18;34.90;100757.31;5012726;28;20061;-84
2021/03/03 13:42:57;;;;;;;45.33;31.38;;;;;;;23.01;34.97;100749.03;4995187;28;20057;-84
2021/03/03 13:45:26;;;;;;;42.35;31.80;;;;;;;22.87;35.80;100744.94;5012148;28;20417;-84
2021/03/03 13:47:55;;;;;;;44.40;30.20;;;;;;;22.76;35.27;100754.00;4995894;28;20513;-84
2021/03/03 13:50:21;;;;;;;47.15;30.92;;;;;;;22.73;35.85;100745.41;5015060;28;20082;-84
2021/03/03 13:52:48;;;;;;;47.47;32.85;;;;;;;22.70;35.91;100741.16;4998698;28;20049;-84
2021/03/03 13:55:14;;;;;;;49.78;35.58;;;;;;;22.66;35.41;100742.44;4998175;28;20061;-84
2021/03/03 13:57:41;;;;;;;46.13;33.33;;;;;;;22.57;35.45;100741.44;5016428;28;20042;-84
2021/03/03 14:00:08;;;;;;;49.60;34.33;;;;;;;22.47;35.59;100745.94;5016176;28;20149;-84
2021/03/03 14:02:34;;;;;;;51.20;34.45;;;;;;;22.34;35.66;100740.84;5016140;28;20050;-84
2021/03/03 14:05:02;;;;;;;48.40;32.85;;;;;;;22.25;35.73;100743.38;5015853;28;20050;-84
2021/03/03 14:07:28;;;;;;;46.78;34.42;;;;;;;22.18;36.13;100739.59;5016489;28;20052;-84
2021/03/03 14:09:54;;;;;;;47.90;33.90;;;;;;;22.16;36.32;100738.84;4999138;28;20050;-84
2021/03/03 14:12:21;;;;;;;45.50;33.85;;;;;;;22.18;36.19;100749.44;5015599;28;20054;-84
2021/03/03 14:14:47;;;;;;;48.47;33.53;;;;;;;22.20;36.28;100751.00;4997614;28;20050;-84
2021/03/03 14:17:13;;;;;;;50.70;32.85;;;;;;;22.24;35.64;100747.06;4998805;28;20081;-84
2021/03/03 14:19:39;;;;;;;47.92;32.33;;;;;;;22.31;35.97;100739.28;4999111;28;20054;-84
2021/03/03 14:22:06;;;;;;;45.40;32.35;;;;;;;22.38;36.10;100742.25;4998469;28;20050;-84
2021/03/03 14:24:32;;;;;;;44.70;32.42;;;;;;;22.46;35.53;100738.91;5015735;28;20077;-84
2021/03/03 14:27:04;;;;;;;49.30;31.83;;;;;;;22.50;35.11;100737.63;5016047;28;20416;-84
2021/03/03 14:29:30;;;;;;;41.65;29.85;;;;;;;22.50;35.09;100740.31;5015804;28;20124;-84
2021/03/03 14:31:56;;;;;;;44.90;30.73;;;;;;;22.48;34.52;100737.75;5015541;28;20061;-86
2021/03/03 14:34:22;;;;;;;44.33;33.05;;;;;;;22.44;34.67;100736.34;5014950;28;20046;-85
2021/03/03 14:36:49;;;;;;;47.45;33.45;;;;;;;22.34;34.89;100736.34;5015204;28;20488;-84
2021/03/03 14:39:15;;;;;;;50.08;33.55;;;;;;;22.20;34.72;100734.91;4998082;28;20104;-84
2021/03/03 14:41:41;;;;;;;49.58;30.98;;;;;;;22.03;34.55;100739.13;4997655;28;20490;-87
2021/03/03 14:44:08;;;;;;;48.38;32.05;;;;;;;21.87;34.78;100739.69;5015237;28;20076;-87
2021/03/03 14:46:35;;;;;;;43.58;29.83;;;;;;;21.71;35.13;100737.47;5015670;28;20121;-87
2021/03/03 14:49:02;;;;;;;45.30;29.98;;;;;;;21.60;35.31;100743.78;5015245;28;20050;-86
2021/03/03 14:51:29;;;;;;;42.83;30.92;;;;;;;21.52;35.26;100736.44;5015332;28;20046;-87
2021/03/03 14:53:55;;;;;;;43.88;30.60;;;;;;;21.45;35.13;100736.13;4997697;28;20050;-87
2021/03/03 14:56:21;;;;;;;44.75;30.55;;;;;;;21.41;35.48;100729.34;4997679;28;20121;-87
2021/03/03 14:58:49;;;;;;;44.92;31.88;;;;;;;21.37;35.38;100733.25;5015461;28;20416;-87
2021/03/03 15:01:16;;;;;;;48.92;32.05;;;;;;;21.38;35.76;100729.59;5014111;28;20057;-87
2021/03/03 15:03:42;;;;;;;49.58;30.83;;;;;;;21.39;35.60;100722.41;5014740;28;20054;-87
2021/03/03 15:06:09;;;;;;;45.78;31.63;;;;;;;21.40;35.53;100727.66;5014520;28;20060;-87
2021/03/03 15:08:36;;;;;;;44.53;31.13;;;;;;;21.41;35.45;100723.97;5015237;28;20065;-86
2021/03/03 15:11:02;;;;;;;42.83;31.02;;;;;;;21.46;35.71;100721.75;5014747;28;20053;-86
2021/03/03 15:13:28;;;;;;;42.05;31.30;;;;;;;21.50;35.90;100730.38;5014809;28;20108;-86
2021/03/03 15:15:57;;;;;;;48.60;33.65;;;;;;;21.56;35.89;100726.28;5014137;28;20054;-86
2021/03/03 15:18:25;;;;;;;48.05;33.60;;;;;;;21.64;35.79;100725.63;4997642;28;20046;-86
2021/03/03 15:20:52;;;;;;;43.45;32.10;;;;;;;21.69;35.65;100718.88;4997323;28;20400;-86
2021/03/03 15:23:19;;;;;;;54.65;35.70;;;;;;;21.73;35.62;100720.31;5014705;28;20492;-84
2021/03/03 15:25:46;;;;;;;44.75;32.22;;;;;;;21.73;35.61;100717.66;5013511;28;20046;-85
2021/03/03 15:28:12;;;;;;;46.45;31.80;;;;;;;21.72;35.50;100707.88;5014640;28;20535;-86
2021/03/03 15:30:38;;;;;;;43.40;30.90;;;;;;;21.68;35.08;100703.75;4997422;28;20049;-87
2021/03/03 15:33:05;;;;;;;41.35;30.38;;;;;;;21.64;34.94;100704.19;4997400;28;20054;-86
2021/03/03 15:35:34;;;;;;;41.17;28.27;;;;;;;21.60;34.73;100701.78;4996380;28;20404;-87
2021/03/03 15:38:00;;;;;;;42.85;30.25;;;;;;;21.55;35.00;100700.47;4996871;28;20046;-84
2021/03/03 15:40:26;;;;;;;40.80;28.55;;;;;;;21.47;34.57;100706.53;4996821;28;20567;-84
2021/03/03 15:42:53;;;;;;;48.47;29.90;;;;;;;21.35;34.70;100703.09;5014598;28;20054;-86
2021/03/03 15:45:20;;;;;;;42.45;29.73;;;;;;;21.20;34.60;100700.78;5013426;28;20496;-85
2021/03/03 15:47:48;;;;;;;41.38;28.70;;;;;;;21.00;34.98;100699.84;5014643;28;20046;-87
2021/03/03 15:50:16;;;;;;;39.75;28.10;;;;;;;20.79;34.86;100703.34;5014412;28;20077;-86
2021/03/03 15:52:45;;;;;;;43.35;28.30;;;;;;;20.54;35.52;100702.75;5014246;28;20056;-86
2021/03/03 15:55:17;;;;;;;41.20;26.13;;;;;;;20.27;35.68;100709.47;4995698;28;20050;-86
2021/03/03 15:57:51;;;;;;;33.65;24.90;;;;;;;20.08;35.50;100711.94;4997958;28;20045;-86
2021/03/03 16:00:18;;;;;;;36.85;22.70;;;;;;;19.85;35.61;100709.31;5014210;28;20057;-86
2021/03/03 16:02:44;;;;;;;34.22;22.27;;;;;;;19.64;35.51;100708.25;5014136;28;20054;-86